Gackle, North Dakota
Current Conditions -  °F | °C
As of 10:56 AM on Tuesday 21 Oct 2014 (Local Time) from KJMS Reporting Station
Clear Clear  
Wind Chill: 58°   Ceiling: Unl
Heat Index: 58°   Visibility: 10mi
Dew Point: 39°   Wind: 20mph
Humidity: 49%   Direction: 150°SSE
Pressure: 29.88"   Gusts: 32mph
Location:  46.63°N, 99.14°W
Report Text: KJMS 211556Z AUTO 15017G28KT 10SM CLR 14/04 A2988 RMK AO2 PK WND 15028/1547 RAB11E28 SLP123 P0000 T01440039
Loading
Personal Weather Stations






























Interactive Weather Map
Tropical Storm Tracking
New forecast layout! Learn more

10-Day Weather Forecast

Advertisements
Track Severe Weather on mobile